Farm — LBHF — position and weather

sailwx.info

Track history (hours):
 
Tides and Currents Weather Stations Pressure Air Temp Water Temp Dewpoint Dewpoint Depression Visibility Wind Speed Wind Dir Waves Ship Positions

Farm

Last reported at 2017-Feb-27 15:07 UTC. Time now 2017-Feb-28 05:25 UTC.
Position N 62°35' E 006°56'.

Length 46 m; draft 4 m.

Type: Law enforcement. MMSI: 257069200.

Date/timePositionNaut miles runAvg speedWind from/ knotsBaromVisibWave heightAir tempDewpointWater temp
2017-Feb-27 15:07N 62°35' E 006°56'0 0.0
2017-Feb-27 14:22N 62°35' E 006°56'0 0.0
2017-Feb-26 19:33N 62°35' E 006°56'6 5.9
2017-Feb-26 18:33N 62°40' E 006°50'7 6.9
2017-Feb-26 17:33N 62°46' E 006°57'9 8.9
2017-Feb-26 16:33N 62°55' E 006°51'8 8.0
2017-Feb-26 15:33N 63°01' E 007°03'10 9.8
2017-Feb-26 14:33N 63°04' E 007°23'9 8.9
2017-Feb-26 13:34N 63°06' E 007°42'1 1.1
2017-Feb-26 12:33N 63°07' E 007°45'0 0.4
2017-Feb-26 11:33N 63°07' E 007°45'0 0.2
2017-Feb-26 10:33N 63°07' E 007°46'1 0.9
2017-Feb-26 09:33N 63°08' E 007°47'8 8.3
2017-Feb-26 08:33N 63°14' E 007°59'7 6.5
2017-Feb-26 07:33N 63°18' E 008°11'6 6.1
2017-Feb-26 06:33N 63°22' E 008°20'4 3.7
2017-Feb-26 05:32N 63°24' E 008°28'6 5.7
2017-Feb-26 04:33N 63°26' E 008°40'6 5.5
2017-Feb-26 03:32N 63°28' E 008°51'5 5.5
2017-Feb-26 02:33N 63°29' E 009°03'5 5.2
2017-Feb-26 01:33N 63°32' E 009°13'5 5.2
2017-Feb-26 00:33N 63°35' E 009°23'6 5.5
2017-Feb-25 23:33N 63°38' E 009°33'3 3.1
2017-Feb-25 22:33N 63°40' E 009°39'2 1.8
2017-Feb-25 21:33N 63°39' E 009°35'3 2.7
2017-Feb-25 20:33N 63°40' E 009°41'3 3.2
2017-Feb-25 19:33N 63°39' E 009°35'2 2.3
2017-Feb-25 18:33N 63°40' E 009°39'2 1.7
2017-Feb-25 17:33N 63°39' E 009°36'2 1.8
2017-Feb-25 16:33N 63°38' E 009°32'2 2.0
2017-Feb-25 15:33N 63°39' E 009°29'9 8.7
2017-Feb-25 14:33N 63°48' E 009°34'9 8.9
2017-Feb-25 13:33N 63°53' E 009°49'9 9.0
2017-Feb-25 12:33N 64°01' E 009°59'7 7.4
2017-Feb-25 11:33N 64°08' E 010°05'10 9.3
2017-Feb-25 10:32N 64°15' E 010°19'8 8.5
2017-Feb-25 09:32N 64°23' E 010°27'9 8.7
2017-Feb-25 08:33N 64°31' E 010°35'8 8.2
2017-Feb-25 07:33N 64°35' E 010°51'4 4.3
2017-Feb-25 06:32N 64°36' E 011°01'2 1.6
2017-Feb-25 05:33N 64°35' E 011°04'0 0.1
2017-Feb-25 04:33N 64°35' E 011°04'2 1.6
2017-Feb-25 03:33N 64°36' E 011°01'1 1.2
2017-Feb-25 02:33N 64°37' E 010°59'0 0.3
2017-Feb-25 01:33N 64°37' E 010°60'4 3.8
2017-Feb-25 00:33N 64°34' E 011°06'3 3.4
2017-Feb-24 23:33N 64°31' E 011°09'3 3.4
2017-Feb-24 22:33N 64°30' E 011°16'4 3.5
2017-Feb-24 21:33N 64°28' E 011°24'2 2.3
2017-Feb-24 20:33N 64°28' E 011°29'0 0.2
2017-Feb-24 19:33N 64°28' E 011°30'0 0.0
2017-Feb-24 18:33N 64°28' E 011°30'0 0.0
2017-Feb-24 17:33N 64°28' E 011°30'0 0.0
2017-Feb-24 16:33N 64°28' E 011°30'3 2.6
2017-Feb-24 15:33N 64°30' E 011°26'7 7.2
2017-Feb-24 14:33N 64°37' E 011°21'7 6.9
2017-Feb-24 13:32N 64°42' E 011°11'7 6.6
2017-Feb-24 12:33N 64°49' E 011°08'9 9.4
2017-Feb-24 11:33N 64°55' E 011°24'9 8.8
2017-Feb-24 10:33N 65°01' E 011°40'9 9.3
2017-Feb-24 09:33N 65°09' E 011°50'9 9.2
2017-Feb-24 08:33N 65°18' E 011°58'9 9.3
2017-Feb-24 07:33N 65°26' E 012°09'5 5.2
2017-Feb-24 06:33N 65°31' E 012°10'0 0.3
2017-Feb-24 05:33N 65°31' E 012°11'0 0.1
2017-Feb-24 04:32N 65°31' E 012°11'0 0.4
2017-Feb-24 03:33N 65°31' E 012°10'0 0.3
2017-Feb-24 02:33N 65°30' E 012°11'1 0.6
2017-Feb-24 01:33N 65°31' E 012°12'6 6.2
2017-Feb-24 00:33N 65°37' E 012°13'8 7.9
2017-Feb-23 23:33N 65°45' E 012°18'7 7.4
2017-Feb-23 22:33N 65°52' E 012°22'7 7.1
2017-Feb-23 21:33N 65°59' E 012°28'8 7.8
2017-Feb-23 20:33N 66°05' E 012°40'8 7.6
2017-Feb-23 19:33N 66°09' E 012°55'7 7.1
2017-Feb-23 18:33N 66°12' E 013°11'9 8.7
2017-Feb-23 17:33N 66°15' E 013°32'8 8.6
2017-Feb-23 16:33N 66°16' E 013°53'7 7.2
2017-Feb-23 15:33N 66°20' E 014°08'0 0.0
2017-Feb-23 14:33N 66°20' E 014°08'0 0.0
2017-Feb-23 13:33N 66°20' E 014°08'1 0.6
2017-Feb-23 12:33N 66°19' E 014°08'0 0.0
2017-Feb-23 11:33N 66°19' E 014°08'0 0.0
2017-Feb-23 10:33N 66°19' E 014°08'0 0.0
2017-Feb-23 09:33N 66°19' E 014°08'1 0.6
2017-Feb-23 08:33N 66°19' E 014°07'6 6.0
2017-Feb-23 07:33N 66°16' E 013°54'8 7.9
2017-Feb-23 06:33N 66°14' E 013°34'8 8.4
2017-Feb-23 05:33N 66°12' E 013°14'9 8.6
2017-Feb-23 04:33N 66°14' E 012°53'1312.5
2017-Feb-23 03:33N 66°26' E 012°59'1110.8
2017-Feb-23 02:33N 66°37' E 013°04'1312.5
2017-Feb-23 01:33N 66°48' E 013°15'1111.4
2017-Feb-23 00:34N 66°58' E 013°31'1212.4
2017-Feb-22 23:33N 67°05' E 013°56'1212.3
2017-Feb-22 22:33N 67°16' E 014°12'1211.6
2017-Feb-22 21:33N 67°26' E 014°26'1211.7
2017-Feb-22 20:33N 67°37' E 014°17'1111.2
2017-Feb-22 19:34N 67°48' E 014°22'1211.8
2017-Feb-22 18:33N 67°59' E 014°36'1212.0
2017-Feb-22 17:33N 68°10' E 014°50'1211.9
2017-Feb-22 16:33N 68°21' E 015°02'1111.1
2017-Feb-22 15:33N 68°32' E 015°09'1111.0
2017-Feb-22 14:33N 68°41' E 015°26'2 1.5
2017-Feb-22 13:33N 68°42' E 015°25'0 0.0
2017-Feb-22 12:33N 68°42' E 015°25'0 0.0
2017-Feb-22 11:33N 68°42' E 015°25'0 0.0
2017-Feb-22 10:33N 68°42' E 015°25'0 0.0
2017-Feb-22 09:33N 68°42' E 015°25'0 0.0
2017-Feb-22 08:33N 68°42' E 015°25'0 0.0
2017-Feb-22 07:33N 68°42' E 015°25'1 1.5
2017-Feb-22 06:33N 68°44' E 015°25'4 3.6
2017-Feb-22 05:33N 68°47' E 015°24'0 0.2
2017-Feb-22 04:33N 68°47' E 015°23'0 0.2
2017-Feb-22 03:33N 68°47' E 015°23'0 0.1
2017-Feb-22 02:32N 68°47' E 015°23'0 0.1
2017-Feb-22 01:33N 68°47' E 015°23'0 0.4
2017-Feb-22 00:33N 68°47' E 015°24'2 2.3
2017-Feb-21 23:33N 68°49' E 015°25'2 2.0
2017-Feb-21 22:33N 68°51' E 015°28'3 3.3
2017-Feb-21 21:33N 68°53' E 015°33'6 6.3
2017-Feb-21 20:33N 68°59' E 015°43'7 6.6
2017-Feb-21 19:33N 68°58' E 016°01'8 7.5
2017-Feb-21 18:33N 68°55' E 016°20'8 7.6
2017-Feb-21 17:33N 68°51' E 016°39'7 7.3
2017-Feb-21 16:33N 68°54' E 016°57'7 6.9
2017-Feb-21 15:33N 68°56' E 017°15'7 7.4
2017-Feb-21 14:33N 69°01' E 017°31'4 4.2
2017-Feb-21 13:33N 69°05' E 017°36'2 1.9
2017-Feb-21 12:33N 69°07' E 017°38'9 8.6
2017-Feb-21 11:33N 69°11' E 017°60'8 8.2
2017-Feb-21 10:33N 69°19' E 017°59'9 9.2
2017-Feb-21 09:33N 69°28' E 018°07'10 9.7
2017-Feb-21 08:33N 69°32' E 018°32'9 9.3
2017-Feb-21 07:33N 69°38' E 018°53'9 8.7
2017-Feb-21 06:34N 69°46' E 019°05'9 8.5
2017-Feb-21 05:33N 69°49' E 019°28'9 8.6
2017-Feb-21 04:33N 69°53' E 019°50'9 9.2
2017-Feb-21 03:33N 69°58' E 020°11'9 9.4
2017-Feb-21 02:33N 70°01' E 020°37'10 9.5
2017-Feb-21 01:32N 70°07' E 020°59'9 9.5
2017-Feb-21 00:33N 70°15' E 021°14'9 9.3
2017-Feb-20 23:33N 70°21' E 021°34'8 8.4
2017-Feb-20 22:33N 70°26' E 021°56'9 9.3
2017-Feb-20 21:33N 70°28' E 022°22'10 9.6
2017-Feb-20 20:33N 70°30' E 022°51'9 9.2
2017-Feb-20 19:33N 70°36' E 023°12'9 9.1
2017-Feb-20 18:33N 70°43' E 023°30'1010.2
2017-Feb-20 17:33N 70°50' E 023°53'10 9.6
2017-Feb-20 16:32N 70°56' E 024°14'9 9.1
2017-Feb-20 15:34N 71°02' E 024°37'9 8.5
2017-Feb-20 14:33N 71°05' E 025°00'8 7.7
2017-Feb-20 13:32N 71°10' E 025°19'6 6.0
2017-Feb-20 12:33N 71°11' E 025°37'6 5.7
2017-Feb-20 11:33N 71°11' E 025°55'6 5.9
2017-Feb-20 10:33N 71°06' E 026°06'1 0.9
2017-Feb-20 09:33N 71°05' E 026°07'2 2.4
2017-Feb-20 08:34N 71°07' E 026°13'2 2.4
2017-Feb-20 07:33N 71°05' E 026°08'1 1.1
2017-Feb-20 06:34N 71°04' E 026°07'3 2.6
2017-Feb-20 05:33N 71°02' E 026°01'1 1.3
2017-Feb-20 04:34N 71°01' E 025°58'2 2.3
2017-Feb-20 03:33N 71°03' E 026°02'1 0.8
2017-Feb-20 02:33N 71°03' E 026°00'0 0.2
2017-Feb-20 01:33N 71°03' E 026°00'1 1.2
2017-Feb-20 00:33N 71°04' E 026°02'1 1.2
2017-Feb-19 23:33N 71°03' E 026°01'0 0.4
2017-Feb-19 22:33N 71°02' E 026°00'2 1.7
2017-Feb-19 21:33N 71°04' E 026°03'2 1.6
2017-Feb-19 20:33N 71°02' E 026°00'2 2.3
2017-Feb-19 19:33N 71°04' E 026°05'2 1.8
2017-Feb-19 18:33N 71°06' E 026°07'1 0.6
2017-Feb-19 17:33N 71°05' E 026°07'1 0.8
2017-Feb-19 16:33N 71°04' E 026°08'2 2.4
2017-Feb-19 15:32N 71°04' E 026°15'7 6.8
2017-Feb-19 14:30N 70°58' E 026°04'3 3.6
2017-Feb-19 13:32N 70°58' E 025°53'0 0.0
2017-Feb-19 12:32N 70°58' E 025°53'2 2.0
2017-Feb-19 11:33N 70°56' E 025°49'1 0.9
2017-Feb-19 10:33N 70°57' E 025°48'1 0.8
2017-Feb-19 09:33N 70°58' E 025°46'0 0.5
2017-Feb-19 08:33N 70°58' E 025°45'1 0.7
2017-Feb-19 07:33N 70°59' E 025°44'3 2.8
2017-Feb-19 06:33N 70°56' E 025°49'1 0.8
2017-Feb-19 05:34N 70°56' E 025°48'2 1.9
2017-Feb-19 04:33N 70°56' E 025°42'3 3.0
2017-Feb-19 03:33N 70°56' E 025°51'1 1.1
2017-Feb-19 02:33N 70°56' E 025°48'3 2.6
2017-Feb-19 01:33N 70°57' E 025°55'3 2.8
2017-Feb-19 00:33N 70°56' E 025°47'1 1.2
2017-Feb-18 23:33N 70°56' E 025°51'1 0.9
2017-Feb-18 22:33N 70°56' E 025°53'3 2.8
2017-Feb-18 21:33N 70°55' E 025°46'1 1.2
2017-Feb-18 20:33N 70°56' E 025°49'2 2.3
2017-Feb-18 19:34N 70°56' E 025°42'2 1.8
2017-Feb-18 18:33N 70°55' E 025°48'3 3.3
2017-Feb-18 17:34N 70°55' E 025°57'2 1.6
2017-Feb-18 16:33N 70°55' E 025°52'0 0.3
2017-Feb-18 15:34N 70°55' E 025°52'3 3.1
2017-Feb-18 14:33N 70°58' E 025°56'1 1.2
2017-Feb-18 13:33N 70°59' E 025°57'2 1.9
2017-Feb-18 12:33N 70°57' E 025°55'8 7.7
2017-Feb-18 11:33N 70°56' E 025°32'9 8.8
2017-Feb-18 10:33N 71°02' E 025°12'10 9.6
2017-Feb-18 09:33N 71°11' E 025°01'1 0.7
2017-Feb-18 08:33N 71°11' E 025°02'1 0.7
2017-Feb-18 07:33N 71°11' E 025°00'1 1.4
2017-Feb-18 06:33N 71°10' E 024°57'5 5.1
2017-Feb-18 05:33N 71°05' E 025°04'4 4.0
2017-Feb-18 04:33N 71°02' E 025°07'1 0.6
2017-Feb-18 03:33N 71°01' E 025°08'1 0.6
2017-Feb-18 02:33N 71°01' E 025°09'0 0.3
2017-Feb-18 01:32N 71°00' E 025°10'2 1.8
2017-Feb-18 00:33N 71°02' E 025°08'3 2.6
2017-Feb-17 23:33N 70°60' E 025°11'2 1.8
2017-Feb-17 22:32N 70°58' E 025°10'1 1.5
2017-Feb-17 21:33N 70°59' E 025°11'1 1.2
2017-Feb-17 20:33N 71°01' E 025°10'1 1.1
2017-Feb-17 19:33N 71°02' E 025°10'1 1.1
2017-Feb-17 18:33N 71°03' E 025°09'1 1.3
2017-Feb-17 17:33N 71°04' E 025°08'1 0.9
2017-Feb-17 16:33N 71°05' E 025°07'9 8.5
2017-Feb-17 15:33N 70°58' E 025°25'  
Track history (hours):
 
Tides and Currents Weather Stations Pressure Air Temp Water Temp Dewpoint Dewpoint Depression Visibility Wind Speed Wind Dir Waves Ship Positions

Farm

Last reported at 2017-Feb-27 15:07 UTC. Time now 2017-Feb-28 05:25 UTC.
Position N 62°35' E 006°56'.

Length 46 m; draft 4 m.

Type: Law enforcement. MMSI: 257069200.

Date/timePositionNaut miles runAvg speedWind from/ knotsBaromVisibWave heightAir tempDewpointWater temp
2017-Feb-27 15:07N 62°35' E 006°56'0 0.0
2017-Feb-27 14:22N 62°35' E 006°56'0 0.0
2017-Feb-26 19:33N 62°35' E 006°56'6 5.9
2017-Feb-26 18:33N 62°40' E 006°50'7 6.9
2017-Feb-26 17:33N 62°46' E 006°57'9 8.9
2017-Feb-26 16:33N 62°55' E 006°51'8 8.0
2017-Feb-26 15:33N 63°01' E 007°03'10 9.8
2017-Feb-26 14:33N 63°04' E 007°23'9 8.9
2017-Feb-26 13:34N 63°06' E 007°42'1 1.1
2017-Feb-26 12:33N 63°07' E 007°45'0 0.4
2017-Feb-26 11:33N 63°07' E 007°45'0 0.2
2017-Feb-26 10:33N 63°07' E 007°46'1 0.9
2017-Feb-26 09:33N 63°08' E 007°47'8 8.3
2017-Feb-26 08:33N 63°14' E 007°59'7 6.5
2017-Feb-26 07:33N 63°18' E 008°11'6 6.1
2017-Feb-26 06:33N 63°22' E 008°20'4 3.7
2017-Feb-26 05:32N 63°24' E 008°28'6 5.7
2017-Feb-26 04:33N 63°26' E 008°40'6 5.5
2017-Feb-26 03:32N 63°28' E 008°51'5 5.5
2017-Feb-26 02:33N 63°29' E 009°03'5 5.2
2017-Feb-26 01:33N 63°32' E 009°13'5 5.2
2017-Feb-26 00:33N 63°35' E 009°23'6 5.5
2017-Feb-25 23:33N 63°38' E 009°33'3 3.1
2017-Feb-25 22:33N 63°40' E 009°39'2 1.8
2017-Feb-25 21:33N 63°39' E 009°35'3 2.7
2017-Feb-25 20:33N 63°40' E 009°41'3 3.2
2017-Feb-25 19:33N 63°39' E 009°35'2 2.3
2017-Feb-25 18:33N 63°40' E 009°39'2 1.7
2017-Feb-25 17:33N 63°39' E 009°36'2 1.8
2017-Feb-25 16:33N 63°38' E 009°32'2 2.0
2017-Feb-25 15:33N 63°39' E 009°29'9 8.7
2017-Feb-25 14:33N 63°48' E 009°34'9 8.9
2017-Feb-25 13:33N 63°53' E 009°49'9 9.0
2017-Feb-25 12:33N 64°01' E 009°59'7 7.4
2017-Feb-25 11:33N 64°08' E 010°05'10 9.3
2017-Feb-25 10:32N 64°15' E 010°19'8 8.5
2017-Feb-25 09:32N 64°23' E 010°27'9 8.7
2017-Feb-25 08:33N 64°31' E 010°35'8 8.2
2017-Feb-25 07:33N 64°35' E 010°51'4 4.3
2017-Feb-25 06:32N 64°36' E 011°01'2 1.6
2017-Feb-25 05:33N 64°35' E 011°04'0 0.1
2017-Feb-25 04:33N 64°35' E 011°04'2 1.6
2017-Feb-25 03:33N 64°36' E 011°01'1 1.2
2017-Feb-25 02:33N 64°37' E 010°59'0 0.3
2017-Feb-25 01:33N 64°37' E 010°60'4 3.8
2017-Feb-25 00:33N 64°34' E 011°06'3 3.4
2017-Feb-24 23:33N 64°31' E 011°09'3 3.4
2017-Feb-24 22:33N 64°30' E 011°16'4 3.5
2017-Feb-24 21:33N 64°28' E 011°24'2 2.3
2017-Feb-24 20:33N 64°28' E 011°29'0 0.2
2017-Feb-24 19:33N 64°28' E 011°30'0 0.0
2017-Feb-24 18:33N 64°28' E 011°30'0 0.0
2017-Feb-24 17:33N 64°28' E 011°30'0 0.0
2017-Feb-24 16:33N 64°28' E 011°30'3 2.6
2017-Feb-24 15:33N 64°30' E 011°26'7 7.2
2017-Feb-24 14:33N 64°37' E 011°21'7 6.9
2017-Feb-24 13:32N 64°42' E 011°11'7 6.6
2017-Feb-24 12:33N 64°49' E 011°08'9 9.4
2017-Feb-24 11:33N 64°55' E 011°24'9 8.8
2017-Feb-24 10:33N 65°01' E 011°40'9 9.3
2017-Feb-24 09:33N 65°09' E 011°50'9 9.2
2017-Feb-24 08:33N 65°18' E 011°58'9 9.3
2017-Feb-24 07:33N 65°26' E 012°09'5 5.2
2017-Feb-24 06:33N 65°31' E 012°10'0 0.3
2017-Feb-24 05:33N 65°31' E 012°11'0 0.1
2017-Feb-24 04:32N 65°31' E 012°11'0 0.4
2017-Feb-24 03:33N 65°31' E 012°10'0 0.3
2017-Feb-24 02:33N 65°30' E 012°11'1 0.6
2017-Feb-24 01:33N 65°31' E 012°12'6 6.2
2017-Feb-24 00:33N 65°37' E 012°13'8 7.9
2017-Feb-23 23:33N 65°45' E 012°18'7 7.4
2017-Feb-23 22:33N 65°52' E 012°22'7 7.1
2017-Feb-23 21:33N 65°59' E 012°28'8 7.8
2017-Feb-23 20:33N 66°05' E 012°40'8 7.6
2017-Feb-23 19:33N 66°09' E 012°55'7 7.1
2017-Feb-23 18:33N 66°12' E 013°11'9 8.7
2017-Feb-23 17:33N 66°15' E 013°32'8 8.6
2017-Feb-23 16:33N 66°16' E 013°53'7 7.2
2017-Feb-23 15:33N 66°20' E 014°08'0 0.0
2017-Feb-23 14:33N 66°20' E 014°08'0 0.0
2017-Feb-23 13:33N 66°20' E 014°08'1 0.6
2017-Feb-23 12:33N 66°19' E 014°08'0 0.0
2017-Feb-23 11:33N 66°19' E 014°08'0 0.0
2017-Feb-23 10:33N 66°19' E 014°08'0 0.0
2017-Feb-23 09:33N 66°19' E 014°08'1 0.6
2017-Feb-23 08:33N 66°19' E 014°07'6 6.0
2017-Feb-23 07:33N 66°16' E 013°54'8 7.9
2017-Feb-23 06:33N 66°14' E 013°34'8 8.4
2017-Feb-23 05:33N 66°12' E 013°14'9 8.6
2017-Feb-23 04:33N 66°14' E 012°53'1312.5
2017-Feb-23 03:33N 66°26' E 012°59'1110.8
2017-Feb-23 02:33N 66°37' E 013°04'1312.5
2017-Feb-23 01:33N 66°48' E 013°15'1111.4
2017-Feb-23 00:34N 66°58' E 013°31'1212.4
2017-Feb-22 23:33N 67°05' E 013°56'1212.3
2017-Feb-22 22:33N 67°16' E 014°12'1211.6
2017-Feb-22 21:33N 67°26' E 014°26'1211.7
2017-Feb-22 20:33N 67°37' E 014°17'1111.2
2017-Feb-22 19:34N 67°48' E 014°22'1211.8
2017-Feb-22 18:33N 67°59' E 014°36'1212.0
2017-Feb-22 17:33N 68°10' E 014°50'1211.9
2017-Feb-22 16:33N 68°21' E 015°02'1111.1
2017-Feb-22 15:33N 68°32' E 015°09'1111.0
2017-Feb-22 14:33N 68°41' E 015°26'2 1.5
2017-Feb-22 13:33N 68°42' E 015°25'0 0.0
2017-Feb-22 12:33N 68°42' E 015°25'0 0.0
2017-Feb-22 11:33N 68°42' E 015°25'0 0.0
2017-Feb-22 10:33N 68°42' E 015°25'0 0.0
2017-Feb-22 09:33N 68°42' E 015°25'0 0.0
2017-Feb-22 08:33N 68°42' E 015°25'0 0.0
2017-Feb-22 07:33N 68°42' E 015°25'1 1.5
2017-Feb-22 06:33N 68°44' E 015°25'4 3.6
2017-Feb-22 05:33N 68°47' E 015°24'0 0.2
2017-Feb-22 04:33N 68°47' E 015°23'0 0.2
2017-Feb-22 03:33N 68°47' E 015°23'0 0.1
2017-Feb-22 02:32N 68°47' E 015°23'0 0.1
2017-Feb-22 01:33N 68°47' E 015°23'0 0.4
2017-Feb-22 00:33N 68°47' E 015°24'2 2.3
2017-Feb-21 23:33N 68°49' E 015°25'2 2.0
2017-Feb-21 22:33N 68°51' E 015°28'3 3.3
2017-Feb-21 21:33N 68°53' E 015°33'6 6.3
2017-Feb-21 20:33N 68°59' E 015°43'7 6.6
2017-Feb-21 19:33N 68°58' E 016°01'8 7.5
2017-Feb-21 18:33N 68°55' E 016°20'8 7.6
2017-Feb-21 17:33N 68°51' E 016°39'7 7.3
2017-Feb-21 16:33N 68°54' E 016°57'7 6.9
2017-Feb-21 15:33N 68°56' E 017°15'7 7.4
2017-Feb-21 14:33N 69°01' E 017°31'4 4.2
2017-Feb-21 13:33N 69°05' E 017°36'2 1.9
2017-Feb-21 12:33N 69°07' E 017°38'9 8.6
2017-Feb-21 11:33N 69°11' E 017°60'8 8.2
2017-Feb-21 10:33N 69°19' E 017°59'9 9.2
2017-Feb-21 09:33N 69°28' E 018°07'10 9.7
2017-Feb-21 08:33N 69°32' E 018°32'9 9.3
2017-Feb-21 07:33N 69°38' E 018°53'9 8.7
2017-Feb-21 06:34N 69°46' E 019°05'9 8.5
2017-Feb-21 05:33N 69°49' E 019°28'9 8.6
2017-Feb-21 04:33N 69°53' E 019°50'9 9.2
2017-Feb-21 03:33N 69°58' E 020°11'9 9.4
2017-Feb-21 02:33N 70°01' E 020°37'10 9.5
2017-Feb-21 01:32N 70°07' E 020°59'9 9.5
2017-Feb-21 00:33N 70°15' E 021°14'9 9.3
2017-Feb-20 23:33N 70°21' E 021°34'8 8.4
2017-Feb-20 22:33N 70°26' E 021°56'9 9.3
2017-Feb-20 21:33N 70°28' E 022°22'10 9.6
2017-Feb-20 20:33N 70°30' E 022°51'9 9.2
2017-Feb-20 19:33N 70°36' E 023°12'9 9.1
2017-Feb-20 18:33N 70°43' E 023°30'1010.2
2017-Feb-20 17:33N 70°50' E 023°53'10 9.6
2017-Feb-20 16:32N 70°56' E 024°14'9 9.1
2017-Feb-20 15:34N 71°02' E 024°37'9 8.5
2017-Feb-20 14:33N 71°05' E 025°00'8 7.7
2017-Feb-20 13:32N 71°10' E 025°19'6 6.0
2017-Feb-20 12:33N 71°11' E 025°37'6 5.7
2017-Feb-20 11:33N 71°11' E 025°55'6 5.9
2017-Feb-20 10:33N 71°06' E 026°06'1 0.9
2017-Feb-20 09:33N 71°05' E 026°07'2 2.4
2017-Feb-20 08:34N 71°07' E 026°13'2 2.4
2017-Feb-20 07:33N 71°05' E 026°08'1 1.1
2017-Feb-20 06:34N 71°04' E 026°07'3 2.6
2017-Feb-20 05:33N 71°02' E 026°01'1 1.3
2017-Feb-20 04:34N 71°01' E 025°58'2 2.3
2017-Feb-20 03:33N 71°03' E 026°02'1 0.8
2017-Feb-20 02:33N 71°03' E 026°00'0 0.2
2017-Feb-20 01:33N 71°03' E 026°00'1 1.2
2017-Feb-20 00:33N 71°04' E 026°02'1 1.2
2017-Feb-19 23:33N 71°03' E 026°01'0 0.4
2017-Feb-19 22:33N 71°02' E 026°00'2 1.7
2017-Feb-19 21:33N 71°04' E 026°03'2 1.6
2017-Feb-19 20:33N 71°02' E 026°00'2 2.3
2017-Feb-19 19:33N 71°04' E 026°05'2 1.8
2017-Feb-19 18:33N 71°06' E 026°07'1 0.6
2017-Feb-19 17:33N 71°05' E 026°07'1 0.8
2017-Feb-19 16:33N 71°04' E 026°08'2 2.4
2017-Feb-19 15:32N 71°04' E 026°15'7 6.8
2017-Feb-19 14:30N 70°58' E 026°04'3 3.6
2017-Feb-19 13:32N 70°58' E 025°53'0 0.0
2017-Feb-19 12:32N 70°58' E 025°53'2 2.0
2017-Feb-19 11:33N 70°56' E 025°49'1 0.9
2017-Feb-19 10:33N 70°57' E 025°48'1 0.8
2017-Feb-19 09:33N 70°58' E 025°46'0 0.5
2017-Feb-19 08:33N 70°58' E 025°45'1 0.7
2017-Feb-19 07:33N 70°59' E 025°44'3 2.8
2017-Feb-19 06:33N 70°56' E 025°49'1 0.8
2017-Feb-19 05:34N 70°56' E 025°48'2 1.9
2017-Feb-19 04:33N 70°56' E 025°42'3 3.0
2017-Feb-19 03:33N 70°56' E 025°51'1 1.1
2017-Feb-19 02:33N 70°56' E 025°48'3 2.6
2017-Feb-19 01:33N 70°57' E 025°55'3 2.8
2017-Feb-19 00:33N 70°56' E 025°47'1 1.2
2017-Feb-18 23:33N 70°56' E 025°51'1 0.9
2017-Feb-18 22:33N 70°56' E 025°53'3 2.8
2017-Feb-18 21:33N 70°55' E 025°46'1 1.2
2017-Feb-18 20:33N 70°56' E 025°49'2 2.3
2017-Feb-18 19:34N 70°56' E 025°42'2 1.8
2017-Feb-18 18:33N 70°55' E 025°48'3 3.3
2017-Feb-18 17:34N 70°55' E 025°57'2 1.6
2017-Feb-18 16:33N 70°55' E 025°52'0 0.3
2017-Feb-18 15:34N 70°55' E 025°52'3 3.1
2017-Feb-18 14:33N 70°58' E 025°56'1 1.2
2017-Feb-18 13:33N 70°59' E 025°57'2 1.9
2017-Feb-18 12:33N 70°57' E 025°55'8 7.7
2017-Feb-18 11:33N 70°56' E 025°32'9 8.8
2017-Feb-18 10:33N 71°02' E 025°12'10 9.6
2017-Feb-18 09:33N 71°11' E 025°01'1 0.7
2017-Feb-18 08:33N 71°11' E 025°02'1 0.7
2017-Feb-18 07:33N 71°11' E 025°00'1 1.4
2017-Feb-18 06:33N 71°10' E 024°57'5 5.1
2017-Feb-18 05:33N 71°05' E 025°04'4 4.0
2017-Feb-18 04:33N 71°02' E 025°07'1 0.6
2017-Feb-18 03:33N 71°01' E 025°08'1 0.6
2017-Feb-18 02:33N 71°01' E 025°09'0 0.3
2017-Feb-18 01:32N 71°00' E 025°10'2 1.8
2017-Feb-18 00:33N 71°02' E 025°08'3 2.6
2017-Feb-17 23:33N 70°60' E 025°11'2 1.8
2017-Feb-17 22:32N 70°58' E 025°10'1 1.5
2017-Feb-17 21:33N 70°59' E 025°11'1 1.2
2017-Feb-17 20:33N 71°01' E 025°10'1 1.1
2017-Feb-17 19:33N 71°02' E 025°10'1 1.1
2017-Feb-17 18:33N 71°03' E 025°09'1 1.3
2017-Feb-17 17:33N 71°04' E 025°08'1 0.9
2017-Feb-17 16:33N 71°05' E 025°07'9 8.5
2017-Feb-17 15:33N 70°58' E 025°25'  

Dump ship's entire track history